createdAt,value
2018-06-22T00:01:47.632Z,14.00
2018-06-22T00:04:15.801Z,14.00
2018-06-22T00:06:43.968Z,14.00
2018-06-22T00:09:12.150Z,14.00
2018-06-22T00:11:40.249Z,13.90
2018-06-22T00:14:08.783Z,13.80
2018-06-22T00:16:37.073Z,14.10
2018-06-22T00:19:05.256Z,14.00
2018-06-22T00:21:33.488Z,14.00
2018-06-22T00:24:01.667Z,13.70
2018-06-22T00:26:29.855Z,13.70
2018-06-22T00:28:58.045Z,13.80
2018-06-22T00:31:26.368Z,13.80
2018-06-22T00:33:54.572Z,13.90
2018-06-22T00:36:22.672Z,14.10
2018-06-22T00:38:50.787Z,14.10
2018-06-22T00:41:18.932Z,14.10
2018-06-22T00:43:47.050Z,13.80
2018-06-22T00:46:15.279Z,13.80
2018-06-22T00:48:43.504Z,13.60
2018-06-22T00:51:11.590Z,13.60
2018-06-22T00:53:56.917Z,13.50
2018-06-22T00:56:24.983Z,13.30
2018-06-22T00:58:53.166Z,13.30
2018-06-22T01:01:21.382Z,13.40
2018-06-22T01:03:49.499Z,13.20
2018-06-22T01:06:17.707Z,13.30
2018-06-22T01:08:45.855Z,13.10
2018-06-22T01:11:13.988Z,13.10
2018-06-22T01:13:42.116Z,13.10
2018-06-22T01:16:10.268Z,13.10
2018-06-22T01:18:38.578Z,13.20
2018-06-22T01:21:06.750Z,13.30
2018-06-22T01:23:34.910Z,13.30
2018-06-22T01:26:03.016Z,13.30
2018-06-22T01:28:31.189Z,13.40
2018-06-22T01:30:59.370Z,13.00
2018-06-22T01:33:27.600Z,12.90
2018-06-22T01:35:55.865Z,13.00
2018-06-22T01:38:23.998Z,12.80
2018-06-22T01:43:20.208Z,12.60
2018-06-22T01:45:48.390Z,12.60
2018-06-22T01:48:16.550Z,12.60
2018-06-22T01:50:44.765Z,12.70
2018-06-22T01:53:12.976Z,12.60
2018-06-22T01:55:41.165Z,12.70
2018-06-22T01:58:09.402Z,12.80
2018-06-22T02:00:37.560Z,12.90
2018-06-22T02:05:33.821Z,12.70
2018-06-22T02:08:01.920Z,12.90
2018-06-22T02:10:31.055Z,12.90
2018-06-22T02:12:59.278Z,12.80
2018-06-22T02:15:27.626Z,12.90
2018-06-22T02:17:55.748Z,12.60
2018-06-22T02:20:23.923Z,12.70
2018-06-22T02:22:52.101Z,12.60
2018-06-22T02:25:20.253Z,12.60
2018-06-22T02:27:48.361Z,12.80
2018-06-22T02:30:16.481Z,12.80
2018-06-22T02:32:45.295Z,12.90
2018-06-22T02:35:13.468Z,13.10
2018-06-22T02:37:41.648Z,13.10
2018-06-22T02:40:09.824Z,12.80
2018-06-22T02:42:38.088Z,12.50
2018-06-22T02:45:06.210Z,12.70
2018-06-22T02:47:41.005Z,12.60
2018-06-22T02:50:09.239Z,12.40
2018-06-22T02:52:37.430Z,12.20
2018-06-22T02:55:05.680Z,12.20
2018-06-22T02:57:33.919Z,12.30
2018-06-22T03:04:58.272Z,12.10
2018-06-22T03:09:54.453Z,12.40
2018-06-22T03:14:50.707Z,12.10
2018-06-22T03:17:18.843Z,12.00
2018-06-22T03:19:47.016Z,12.00
2018-06-22T03:22:15.157Z,12.20
2018-06-22T03:24:43.308Z,12.30
2018-06-22T03:29:39.505Z,12.40
2018-06-22T03:32:07.694Z,12.50
2018-06-22T03:34:35.846Z,12.70
2018-06-22T03:37:04.974Z,12.80
2018-06-22T03:39:33.219Z,12.70
2018-06-22T03:42:01.387Z,12.80
2018-06-22T03:44:29.568Z,12.80
2018-06-22T03:46:57.792Z,12.70
2018-06-22T03:49:26.013Z,12.60
2018-06-22T03:51:54.227Z,12.70
2018-06-22T03:54:22.379Z,12.70
2018-06-22T03:59:18.652Z,12.70
2018-06-22T04:01:46.792Z,12.80
2018-06-22T04:04:14.908Z,12.90
2018-06-22T04:06:43.019Z,12.90
2018-06-22T04:09:11.264Z,12.50
2018-06-22T04:11:39.490Z,12.30
2018-06-22T04:14:07.688Z,12.20
2018-06-22T04:16:36.144Z,12.40
2018-06-22T04:19:04.320Z,12.50
2018-06-22T04:21:32.755Z,12.50
2018-06-22T04:24:00.972Z,12.40
2018-06-22T04:26:29.152Z,12.30
2018-06-22T04:28:57.551Z,12.50
2018-06-22T04:31:25.721Z,12.60
2018-06-22T04:33:54.565Z,12.40
2018-06-22T04:36:22.824Z,11.90
2018-06-22T04:38:51.099Z,11.70
2018-06-22T04:41:19.337Z,11.50
2018-06-22T04:43:47.476Z,11.80
2018-06-22T04:46:15.622Z,11.80
2018-06-22T04:48:43.855Z,12.00
2018-06-22T04:51:12.105Z,12.00
2018-06-22T04:53:40.269Z,12.10
2018-06-22T04:56:08.431Z,12.10
2018-06-22T04:58:36.541Z,12.10
2018-06-22T05:01:04.814Z,12.30
2018-06-22T05:03:33.026Z,12.50
2018-06-22T05:06:01.224Z,12.30
2018-06-22T05:08:29.361Z,11.80
2018-06-22T05:10:57.539Z,11.90
2018-06-22T05:13:25.713Z,11.80
2018-06-22T05:15:53.891Z,12.00
2018-06-22T05:18:22.096Z,11.90
2018-06-22T05:20:50.243Z,11.80
2018-06-22T05:23:18.467Z,11.90
2018-06-22T05:25:46.700Z,12.10
2018-06-22T05:28:14.884Z,12.20
2018-06-22T05:30:43.056Z,12.20
2018-06-22T05:33:11.233Z,12.20
2018-06-22T05:35:39.415Z,12.20
2018-06-22T05:38:07.617Z,12.00
2018-06-22T05:40:36.653Z,12.00
2018-06-22T05:43:04.852Z,12.10
2018-06-22T05:48:01.124Z,12.30
2018-06-22T05:50:29.361Z,12.40
2018-06-22T05:55:25.640Z,12.00
2018-06-22T05:57:53.829Z,11.90
2018-06-22T06:00:22.099Z,12.00
2018-06-22T06:02:50.337Z,11.90
2018-06-22T06:07:46.617Z,12.40
2018-06-22T06:10:14.814Z,12.20
2018-06-22T06:12:43.054Z,12.10
2018-06-22T06:15:11.188Z,12.30
2018-06-22T06:17:39.397Z,12.40
2018-06-22T06:20:09.761Z,12.30
2018-06-22T06:22:38.109Z,12.50
2018-06-22T06:25:06.234Z,12.30
2018-06-22T06:27:34.753Z,12.30
2018-06-22T06:30:03.025Z,12.50
2018-06-22T06:32:32.023Z,12.80
2018-06-22T06:35:00.272Z,12.60
2018-06-22T06:37:28.492Z,12.80
2018-06-22T06:39:56.706Z,13.00
2018-06-22T06:44:53.017Z,12.80
2018-06-22T06:47:21.355Z,12.80
2018-06-22T06:49:49.487Z,13.00
2018-06-22T06:52:17.673Z,13.00
2018-06-22T06:54:45.842Z,13.10
2018-06-22T06:57:14.047Z,13.10
2018-06-22T06:59:42.208Z,13.30
2018-06-22T07:02:10.406Z,13.60
2018-06-22T07:04:38.627Z,13.20
2018-06-22T07:09:34.889Z,13.00
2018-06-22T07:12:03.030Z,13.00
2018-06-22T07:14:31.282Z,13.20
2018-06-22T07:16:59.536Z,13.30
2018-06-22T07:19:27.800Z,13.50
2018-06-22T07:21:55.928Z,13.00
2018-06-22T07:24:24.164Z,12.90
2018-06-22T07:26:52.376Z,13.00
2018-06-22T07:29:20.543Z,13.30
2018-06-22T07:31:48.708Z,13.50
2018-06-22T07:34:16.958Z,13.60
2018-06-22T07:36:45.102Z,13.40
2018-06-22T07:39:13.326Z,13.40
2018-06-22T07:41:41.567Z,13.40
2018-06-22T07:44:09.782Z,13.50
2018-06-22T07:46:38.167Z,13.70
2018-06-22T07:49:06.446Z,14.00
2018-06-22T07:54:03.019Z,13.60
2018-06-22T07:56:31.549Z,13.50
2018-06-22T07:59:00.017Z,13.70
2018-06-22T08:01:28.208Z,13.30
2018-06-22T08:03:56.406Z,13.40
2018-06-22T08:06:24.637Z,13.90
2018-06-22T08:08:52.905Z,14.20
2018-06-22T08:13:49.263Z,14.00
2018-06-22T08:16:17.569Z,13.90
2018-06-22T08:18:45.784Z,13.80
2018-06-22T08:21:13.981Z,13.60
2018-06-22T08:23:42.241Z,13.80
2018-06-22T08:26:10.477Z,13.80
2018-06-22T08:28:38.657Z,13.50
2018-06-22T08:31:06.948Z,13.80
2018-06-22T08:33:35.215Z,14.10
2018-06-22T08:36:03.428Z,13.90
2018-06-22T08:38:31.603Z,14.00
2018-06-22T08:43:27.848Z,14.60
2018-06-22T08:45:58.288Z,14.50
2018-06-22T08:48:26.617Z,14.50
2018-06-22T08:50:54.725Z,14.60
2018-06-22T08:53:23.061Z,14.50
2018-06-22T08:55:51.339Z,14.40
2018-06-22T08:58:19.528Z,14.50
2018-06-22T09:00:47.773Z,14.60
2018-06-22T09:03:15.942Z,14.50
2018-06-22T09:05:44.179Z,14.30
2018-06-22T09:08:12.435Z,14.60
2018-06-22T09:10:40.622Z,14.90
2018-06-22T09:13:08.868Z,14.80
2018-06-22T09:15:37.012Z,15.00
2018-06-22T09:18:05.314Z,15.20
2018-06-22T09:20:33.517Z,15.20
2018-06-22T09:23:01.694Z,15.00
2018-06-22T09:25:29.919Z,14.90
2018-06-22T09:27:58.228Z,14.70
2018-06-22T09:30:26.402Z,14.80
2018-06-22T09:32:54.651Z,15.00
2018-06-22T09:35:22.807Z,14.90
2018-06-22T09:37:50.992Z,14.80
2018-06-22T09:40:19.249Z,15.00
2018-06-22T09:42:47.587Z,15.30
2018-06-22T09:45:15.727Z,14.90
2018-06-22T09:47:43.993Z,14.70
2018-06-22T09:50:12.231Z,14.50
2018-06-22T09:52:40.464Z,14.60
2018-06-22T09:55:08.746Z,14.90
2018-06-22T09:57:37.060Z,14.80
2018-06-22T10:00:05.479Z,14.70
2018-06-22T10:02:33.680Z,14.80
2018-06-22T10:05:01.885Z,15.00
2018-06-22T10:09:58.181Z,15.40
2018-06-22T10:12:26.888Z,15.20
2018-06-22T10:14:55.223Z,15.20
2018-06-22T10:17:23.594Z,14.90
2018-06-22T10:19:51.737Z,15.00
2018-06-22T10:22:19.854Z,15.10
2018-06-22T10:24:48.112Z,14.90
2018-06-22T10:27:16.415Z,15.10
2018-06-22T10:29:44.684Z,15.20
2018-06-22T10:32:13.011Z,15.20
2018-06-22T10:34:41.179Z,15.40
2018-06-22T10:37:09.343Z,15.40
2018-06-22T10:42:06.728Z,15.10
2018-06-22T10:44:34.924Z,15.20
2018-06-22T10:47:03.297Z,15.30
2018-06-22T10:49:31.559Z,15.40
2018-06-22T10:51:59.831Z,15.30
2018-06-22T10:54:28.159Z,15.60
2018-06-22T10:56:56.393Z,15.90
2018-06-22T10:59:24.734Z,16.20
2018-06-22T11:01:52.960Z,16.00
2018-06-22T11:04:21.215Z,15.80
2018-06-22T11:06:49.499Z,15.60
2018-06-22T11:09:17.715Z,15.90
2018-06-22T11:11:45.908Z,15.70
2018-06-22T11:16:42.349Z,15.70
2018-06-22T11:19:10.512Z,15.60
2018-06-22T11:21:38.819Z,15.90
2018-06-22T11:24:07.080Z,15.80
2018-06-22T11:29:03.433Z,16.20
2018-06-22T11:31:31.631Z,16.20
2018-06-22T11:33:59.819Z,16.30
2018-06-22T11:36:28.068Z,16.20
2018-06-22T11:41:24.434Z,16.20
2018-06-22T11:46:20.785Z,16.50
2018-06-22T11:48:49.034Z,16.40
2018-06-22T11:51:17.357Z,16.50
2018-06-22T11:53:45.553Z,16.60
2018-06-22T11:56:13.879Z,16.90
2018-06-22T11:58:42.139Z,16.90
2018-06-22T12:01:10.389Z,17.00
2018-06-22T12:03:38.583Z,17.00
2018-06-22T12:06:07.462Z,17.00
2018-06-22T12:08:36.611Z,17.00
2018-06-22T12:11:05.084Z,16.70
2018-06-22T12:13:33.375Z,16.70
2018-06-22T12:16:01.584Z,16.50
2018-06-22T12:18:29.832Z,16.40
2018-06-22T12:20:57.984Z,16.70
2018-06-22T12:23:26.170Z,16.80
2018-06-22T12:25:54.371Z,16.80
2018-06-22T12:28:22.573Z,16.90
2018-06-22T12:30:50.783Z,16.90
2018-06-22T12:33:19.015Z,16.60
2018-06-22T12:35:47.328Z,16.60
2018-06-22T12:38:15.492Z,16.60
2018-06-22T12:40:43.676Z,16.50
2018-06-22T12:43:11.837Z,16.60
2018-06-22T12:45:40.093Z,16.80
2018-06-22T12:48:08.306Z,16.70
2018-06-22T12:50:36.572Z,16.40
2018-06-22T12:53:04.793Z,16.40
2018-06-22T12:55:33.095Z,16.20
2018-06-22T12:58:01.344Z,16.40
2018-06-22T13:00:29.596Z,16.60
2018-06-22T13:02:57.772Z,16.90
2018-06-22T13:07:54.110Z,17.00
2018-06-22T13:10:22.292Z,16.70
2018-06-22T13:12:50.518Z,16.60
2018-06-22T13:15:18.742Z,17.00
2018-06-22T13:17:46.972Z,17.30
2018-06-22T13:20:15.143Z,17.20
2018-06-22T13:22:43.430Z,17.00
2018-06-22T13:25:11.602Z,16.40
2018-06-22T13:27:39.792Z,16.30
2018-06-22T13:30:08.213Z,16.60
2018-06-22T13:32:36.416Z,16.80
2018-06-22T13:35:04.966Z,16.80
2018-06-22T13:37:33.184Z,16.80
2018-06-22T13:40:01.388Z,16.70
2018-06-22T13:42:29.571Z,16.80
2018-06-22T13:44:57.857Z,16.90
2018-06-22T13:47:26.024Z,16.90
2018-06-22T13:49:54.298Z,17.00
2018-06-22T13:52:22.552Z,16.80
2018-06-22T13:54:50.818Z,16.60
2018-06-22T13:57:19.058Z,16.70
2018-06-22T13:59:47.576Z,16.70
2018-06-22T14:04:49.632Z,16.40
2018-06-22T14:07:17.922Z,16.60
2018-06-22T14:09:46.160Z,16.70
2018-06-22T14:12:14.488Z,16.80
2018-06-22T14:14:42.753Z,16.80
2018-06-22T14:17:11.037Z,16.90
2018-06-22T14:19:39.220Z,17.20
2018-06-22T14:24:35.707Z,17.10
2018-06-22T14:27:04.050Z,17.30
2018-06-22T14:29:32.261Z,17.40
2018-06-22T14:32:00.473Z,16.90
2018-06-22T14:34:28.709Z,17.00
2018-06-22T14:36:56.998Z,17.10
2018-06-22T14:39:25.510Z,17.10
2018-06-22T14:41:53.814Z,17.00
2018-06-22T14:44:22.100Z,17.30
2018-06-22T14:46:50.380Z,17.40
2018-06-22T14:49:18.643Z,17.40
2018-06-22T14:51:49.740Z,17.60
2018-06-22T14:54:23.815Z,17.70
2018-06-22T14:56:57.596Z,17.80
2018-06-22T14:59:31.416Z,17.60
2018-06-22T15:04:09.029Z,17.40
2018-06-22T15:06:42.887Z,17.50
2018-06-22T15:09:11.363Z,17.60
2018-06-22T15:14:08.032Z,17.80
2018-06-22T15:16:36.301Z,17.70
2018-06-22T15:19:04.621Z,17.50
2018-06-22T15:21:33.174Z,17.60
2018-06-22T15:24:01.524Z,17.80
2018-06-22T15:26:29.854Z,17.90
2018-06-22T15:28:58.192Z,18.10
2018-06-22T15:31:26.458Z,18.30
2018-06-22T15:34:00.294Z,18.20
2018-06-22T15:36:34.092Z,18.40
2018-06-22T15:39:08.039Z,18.50
2018-06-22T15:41:41.821Z,18.00
2018-06-22T15:44:15.637Z,17.70
2018-06-22T15:46:50.446Z,17.80
2018-06-22T15:49:24.292Z,17.80
2018-06-22T15:51:58.064Z,17.80
2018-06-22T15:54:31.824Z,17.70
2018-06-22T15:59:28.349Z,17.70
2018-06-22T16:02:04.017Z,17.60
2018-06-22T16:07:00.384Z,17.70
2018-06-22T16:09:28.643Z,17.40
2018-06-22T16:14:35.085Z,17.30
2018-06-22T16:17:08.837Z,17.30
2018-06-22T16:19:42.773Z,17.00
2018-06-22T16:22:16.656Z,17.00
2018-06-22T16:24:50.662Z,17.20
2018-06-22T16:27:18.913Z,17.40
2018-06-22T16:29:47.111Z,17.30
2018-06-22T16:32:15.360Z,17.20
2018-06-22T16:34:43.533Z,17.30
2018-06-22T16:37:11.725Z,17.30
2018-06-22T16:42:08.223Z,17.10
2018-06-22T16:44:37.389Z,17.10
2018-06-22T16:47:05.609Z,17.40
2018-06-22T16:49:33.881Z,17.60
2018-06-22T16:52:02.120Z,17.80
2018-06-22T16:54:30.339Z,18.00
2018-06-22T16:56:58.551Z,17.80
2018-06-22T16:59:26.791Z,17.70
2018-06-22T17:01:55.080Z,17.70
2018-06-22T17:04:23.313Z,17.50
2018-06-22T17:06:57.286Z,17.10
2018-06-22T17:09:31.251Z,17.00
2018-06-22T17:12:05.079Z,17.10
2018-06-22T17:14:38.796Z,16.90
2018-06-22T17:17:12.505Z,16.90
2018-06-22T17:19:40.770Z,16.70
2018-06-22T17:22:09.016Z,16.70
2018-06-22T17:24:37.370Z,16.80
2018-06-22T17:27:06.069Z,16.70
2018-06-22T17:29:34.382Z,16.70
2018-06-22T17:32:02.708Z,16.60
2018-06-22T17:34:30.926Z,16.70
2018-06-22T17:36:59.207Z,16.60
2018-06-22T17:39:27.407Z,16.70
2018-06-22T17:41:55.680Z,16.70
2018-06-22T17:44:24.024Z,16.70
2018-06-22T17:46:52.307Z,16.70
2018-06-22T17:49:20.557Z,16.60
2018-06-22T17:54:16.951Z,16.90
2018-06-22T17:56:45.157Z,17.00
2018-06-22T17:59:18.970Z,17.10
2018-06-22T18:01:52.923Z,17.20
2018-06-22T18:04:26.864Z,17.20
2018-06-22T18:07:00.605Z,17.10
2018-06-22T18:09:34.598Z,17.10
2018-06-22T18:12:08.369Z,17.00
2018-06-22T18:14:36.571Z,16.70
2018-06-22T18:17:04.860Z,16.80
2018-06-22T18:19:33.077Z,16.90
2018-06-22T18:22:01.289Z,17.00
2018-06-22T18:24:29.566Z,17.10
2018-06-22T18:26:57.857Z,17.10
2018-06-22T18:29:26.159Z,17.00
2018-06-22T18:31:54.382Z,16.90
2018-06-22T18:34:22.676Z,16.90
2018-06-22T18:36:50.880Z,17.00
2018-06-22T18:39:19.165Z,17.00
2018-06-22T18:41:47.421Z,16.90
2018-06-22T18:44:16.637Z,16.90
2018-06-22T18:46:45.360Z,16.90
2018-06-22T18:49:13.651Z,16.70
2018-06-22T18:51:41.880Z,16.80
2018-06-22T18:54:15.745Z,16.80
2018-06-22T18:56:49.628Z,16.90
2018-06-22T18:59:52.596Z,16.70
2018-06-22T19:02:26.493Z,16.60
2018-06-22T19:04:54.821Z,16.50
2018-06-22T19:07:23.061Z,16.60
2018-06-22T19:09:51.237Z,16.60
2018-06-22T19:12:19.484Z,16.50
2018-06-22T19:14:47.713Z,16.40
2018-06-22T19:19:44.074Z,16.40
2018-06-22T19:24:40.445Z,16.50
2018-06-22T19:27:08.719Z,16.40
2018-06-22T19:29:37.078Z,16.50
2018-06-22T19:32:05.614Z,16.40
2018-06-22T19:34:39.304Z,16.40
2018-06-22T19:37:07.456Z,16.30
2018-06-22T19:39:35.752Z,16.20
2018-06-22T19:42:04.120Z,16.20
2018-06-22T19:44:37.985Z,16.10
2018-06-22T19:47:12.190Z,16.00
2018-06-22T19:49:45.725Z,16.00
2018-06-22T19:52:19.564Z,15.90
2018-06-22T19:54:47.870Z,15.90
2018-06-22T19:57:16.155Z,15.90
2018-06-22T19:59:44.421Z,15.90
2018-06-22T20:02:12.652Z,15.90
2018-06-22T20:04:40.949Z,15.80
2018-06-22T20:07:09.204Z,15.80
2018-06-22T20:09:37.497Z,15.80
2018-06-22T20:12:05.749Z,15.90
2018-06-22T20:14:34.079Z,16.00
2018-06-22T20:17:02.320Z,15.90
2018-06-22T20:19:30.608Z,15.90
2018-06-22T20:21:59.017Z,16.00
2018-06-22T20:27:01.030Z,15.90
2018-06-22T20:29:29.277Z,15.90
2018-06-22T20:31:57.525Z,15.90
2018-06-22T20:34:31.221Z,15.90
2018-06-22T20:39:38.593Z,15.90
2018-06-22T20:42:12.526Z,15.90
2018-06-22T20:44:46.312Z,15.80
2018-06-22T20:47:20.102Z,15.70
2018-06-22T20:49:53.826Z,15.70
2018-06-22T20:52:22.088Z,15.50
2018-06-22T20:54:50.307Z,15.50
2018-06-22T20:57:18.553Z,15.40
2018-06-22T20:59:46.730Z,15.40
2018-06-22T21:02:14.965Z,15.30
2018-06-22T21:04:43.351Z,15.30
2018-06-22T21:07:11.900Z,15.20
2018-06-22T21:09:40.167Z,15.20
2018-06-22T21:12:08.569Z,15.10
2018-06-22T21:14:36.819Z,15.10
2018-06-22T21:17:05.119Z,15.00
2018-06-22T21:19:33.366Z,14.90
2018-06-22T21:22:07.078Z,14.80
2018-06-22T21:24:35.500Z,14.80
2018-06-22T21:27:09.254Z,15.00
2018-06-22T21:29:43.181Z,14.90
2018-06-22T21:32:16.998Z,14.80
2018-06-22T21:34:50.824Z,14.80
2018-06-22T21:37:25.019Z,14.70
2018-06-22T21:39:53.354Z,14.60
2018-06-22T21:42:22.136Z,14.60
2018-06-22T21:44:50.575Z,14.50
2018-06-22T21:47:18.787Z,14.50
2018-06-22T21:49:47.053Z,14.30
2018-06-22T21:52:15.294Z,14.20
2018-06-22T21:54:43.487Z,14.20
2018-06-22T21:57:11.744Z,14.20
2018-06-22T21:59:40.000Z,14.20
2018-06-22T22:02:08.171Z,14.10
2018-06-22T22:04:36.380Z,14.10
2018-06-22T22:07:04.604Z,14.20
2018-06-22T22:09:38.499Z,14.10
2018-06-22T22:12:06.868Z,14.00
2018-06-22T22:14:34.983Z,14.00
2018-06-22T22:17:03.241Z,14.10
2018-06-22T22:19:31.532Z,14.10
2018-06-22T22:21:59.725Z,14.10
2018-06-22T22:24:28.015Z,14.00
2018-06-22T22:26:56.248Z,14.00
2018-06-22T22:29:24.557Z,13.90
2018-06-22T22:31:52.824Z,13.90
2018-06-22T22:34:21.050Z,13.90
2018-06-22T22:36:49.312Z,13.90
2018-06-22T22:39:17.591Z,13.70
2018-06-22T22:41:45.856Z,13.60
2018-06-22T22:46:42.246Z,13.60
2018-06-22T22:49:10.526Z,13.60
2018-06-22T22:51:38.712Z,13.50
2018-06-22T22:54:06.897Z,13.50
2018-06-22T22:56:35.060Z,13.40
2018-06-22T22:59:03.351Z,13.50
2018-06-22T23:01:31.525Z,13.40
2018-06-22T23:03:59.678Z,13.40
2018-06-22T23:06:27.840Z,13.40
2018-06-22T23:08:56.043Z,13.30
2018-06-22T23:18:49.049Z,13.30
2018-06-22T23:21:17.308Z,13.30
2018-06-22T23:23:45.507Z,13.30
2018-06-22T23:26:13.665Z,13.40
2018-06-22T23:28:41.869Z,13.30
2018-06-22T23:31:10.459Z,13.20
2018-06-22T23:33:38.660Z,13.00
2018-06-22T23:36:06.904Z,12.90
2018-06-22T23:38:35.039Z,13.00
2018-06-22T23:43:35.603Z,13.10
2018-06-22T23:46:03.778Z,13.10
2018-06-22T23:48:31.935Z,13.00
2018-06-22T23:51:00.107Z,13.00
2018-06-22T23:53:28.238Z,12.90
2018-06-22T23:55:56.386Z,12.90
2018-06-22T23:58:24.860Z,12.90
